Time;durP1;ratioP1;P1;durP2;ratioP2;P2;SDS_P1;SDS_P2;PMS_P1;PMS_P2;Temp;Humidity;BMP_temperature;BMP_pressure;BME280_temperature;BME280_humidity;BME280_pressure;Samples;Min_cycle;Max_cycle;Signal;HPM_P1;HPM_P2
2022/12/19 00:01:57;;;;;;;112.07;37.55;;;;;;;;;;5095218;28;20170;-76
2022/12/19 00:04:23;;;;;;;120.72;38.92;;;;;;;;;;5101521;28;20036;-76
2022/12/19 00:06:49;;;;;;;111.60;38.60;;;;;;;;;;5109525;28;20067;-76
2022/12/19 00:09:16;;;;;;;119.55;39.47;;;;;;;;;;5098656;28;20479;-76
2022/12/19 00:11:42;;;;;;;117.40;40.92;;;;;;;;;;5095870;28;20040;-76
2022/12/19 00:14:10;;;;;;;124.47;37.42;;;0.70;99.90;;;;;;5096097;28;20055;-76
2022/12/19 00:16:36;;;;;;;127.68;39.85;;;;;;;;;;5115995;28;20451;-76
2022/12/19 00:19:02;;;;;;;120.35;38.13;;;;;;;;;;5098859;28;20391;-76
2022/12/19 00:21:30;;;;;;;124.05;38.38;;;0.80;99.90;;;;;;5078932;28;20113;-76
2022/12/19 00:23:57;;;;;;;103.18;36.83;;;0.60;99.90;;;;;;5114165;28;20487;-76
2022/12/19 00:26:28;;;;;;;113.82;37.65;;;0.70;99.90;;;;;;5097641;28;20138;-76
2022/12/19 00:28:57;;;;;;;108.25;38.03;;;0.70;99.90;;;;;;5078289;28;20040;-76
2022/12/19 00:31:24;;;;;;;114.70;38.17;;;0.70;99.90;;;;;;5097740;28;20369;-76
2022/12/19 00:33:50;;;;;;;116.93;38.33;;;;;;;;;;5095008;28;20043;-76
2022/12/19 00:36:18;;;;;;;116.50;38.05;;;;;;;;;;5108820;28;20441;-76
2022/12/19 00:38:44;;;;;;;122.22;39.03;;;;;;;;;;5083595;28;20071;-76
2022/12/19 00:41:19;;;;;;;113.28;39.08;;;0.90;99.90;;;;;;5105723;28;20039;-76
2022/12/19 00:43:49;;;;;;;123.80;38.45;;;;;;;;;;5098146;28;20357;-76
2022/12/19 00:46:15;;;;;;;123.30;37.75;;;0.80;99.90;;;;;;5087796;28;20056;-76
2022/12/19 00:48:41;;;;;;;125.43;38.80;;;;;;;;;;5094630;28;20036;-76
2022/12/19 00:51:13;;;;;;;131.43;39.75;;;0.80;99.90;;;;;;5102131;28;20449;-76
2022/12/19 00:53:39;;;;;;;123.10;40.83;;;;;;;;;;5082029;28;20050;-76
2022/12/19 00:56:07;;;;;;;123.70;40.72;;;;;;;;;;5083276;28;20035;-76
2022/12/19 00:58:33;;;;;;;121.10;39.30;;;;;;;;;;5115113;28;20082;-76
2022/12/19 01:01:05;;;;;;;119.38;39.25;;;;;;;;;;5109403;28;20046;-76
2022/12/19 01:03:31;;;;;;;118.70;38.33;;;;;;;;;;5094260;28;20040;-76
2022/12/19 01:05:57;;;;;;;143.48;41.30;;;;;;;;;;5079573;28;20045;-76
2022/12/19 01:08:23;;;;;;;125.47;37.60;;;;;;;;;;5096725;28;20039;-76
2022/12/19 01:10:49;;;;;;;122.57;38.72;;;;;;;;;;5101940;28;20079;-76
2022/12/19 01:13:16;;;;;;;136.13;39.75;;;;;;;;;;5114017;28;20039;-76
2022/12/19 01:15:42;;;;;;;122.10;39.42;;;;;;;;;;5114516;28;20488;-77
2022/12/19 01:18:09;;;;;;;119.80;40.25;;;;;;;;;;5079929;28;20054;-77
2022/12/19 01:20:39;;;;;;;125.85;39.28;;;;;;;;;;5094235;28;20040;-77
2022/12/19 01:23:06;;;;;;;112.40;39.30;;;;;;;;;;5078493;28;20039;-77
2022/12/19 01:25:33;;;;;;;115.07;39.13;;;1.00;99.90;;;;;;5093825;28;20036;-77
2022/12/19 01:27:59;;;;;;;117.07;39.45;;;;;;;;;;5106690;27;20483;-77
2022/12/19 01:30:26;;;;;;;130.68;39.03;;;;;;;;;;5114487;28;20080;-77
2022/12/19 01:32:52;;;;;;;115.78;40.05;;;;;;;;;;5095572;28;20044;-77
2022/12/19 01:35:18;;;;;;;122.30;39.58;;;;;;;;;;5101168;28;20046;-77
2022/12/19 01:37:44;;;;;;;122.85;38.30;;;;;;;;;;5101124;28;20039;-77
2022/12/19 01:40:12;;;;;;;114.50;38.55;;;1.10;99.90;;;;;;5097163;28;20043;-77
2022/12/19 01:42:38;;;;;;;118.85;39.15;;;;;;;;;;5110076;28;20498;-77
2022/12/19 01:45:04;;;;;;;117.90;39.78;;;;;;;;;;5113865;28;20059;-77
2022/12/19 01:47:31;;;;;;;128.68;40.20;;;;;;;;;;5093878;28;20035;-77
2022/12/19 01:49:57;;;;;;;125.72;39.08;;;;;;;;;;5060156;28;20044;-77
2022/12/19 01:52:23;;;;;;;119.90;39.92;;;;;;;;;;5099032;28;20032;-77
2022/12/19 01:54:49;;;;;;;127.85;40.10;;;;;;;;;;5093655;28;20503;-77
2022/12/19 01:57:17;;;;;;;123.43;40.17;;;;;;;;;;5103361;28;20050;-77
2022/12/19 01:59:50;;;;;;;123.53;38.72;;;1.00;99.90;;;;;;5094622;28;20111;-77
2022/12/19 02:02:27;;;;;;;127.40;40.53;;;;;;;;;;5082003;28;20096;-77
2022/12/19 02:04:53;;;;;;;125.60;38.28;;;;;;;;;;5094858;28;20043;-77
2022/12/19 02:07:20;;;;;;;124.35;39.38;;;;;;;;;;5093404;28;20055;-77
2022/12/19 02:09:50;;;;;;;124.80;39.20;;;1.20;99.90;;;;;;5109157;28;20032;-77
2022/12/19 02:12:16;;;;;;;130.30;38.92;;;;;;;;;;5111469;28;20036;-76
2022/12/19 02:14:42;;;;;;;119.32;37.75;;;;;;;;;;5082670;28;20044;-76
2022/12/19 02:17:08;;;;;;;118.35;38.95;;;;;;;;;;5092990;28;20396;-76
2022/12/19 02:19:47;;;;;;;132.25;38.92;;;;;;;;;;5086912;28;20039;-76
2022/12/19 02:22:31;;;;;;;118.22;38.78;;;;;;;;;;5095981;28;20417;-77
2022/12/19 02:25:09;;;;;;;127.68;38.53;;;;;;;;;;5107469;28;20047;-77
2022/12/19 02:27:41;;;;;;;120.15;37.13;;;;;;;;;;5094564;28;20495;-77
2022/12/19 02:30:12;;;;;;;122.93;36.67;;;1.20;99.90;;;;;;5083149;28;20491;-77
2022/12/19 02:32:59;;;;;;;119.13;38.33;;;;;;;;;;5107226;28;20050;-77
2022/12/19 02:35:33;;;;;;;119.00;38.47;;;;;;;;;;5084443;28;20050;-77
2022/12/19 02:37:59;;;;;;;117.95;37.60;;;;;;;;;;5113303;28;20039;-77
2022/12/19 02:40:34;;;;;;;116.75;38.22;;;1.40;99.90;;;;;;5099759;28;20454;-77
2022/12/19 02:43:02;;;;;;;128.05;40.25;;;1.30;99.90;;;;;;5092862;28;20040;-77
2022/12/19 02:45:32;;;;;;;122.25;37.55;;;;;;;;;;5087324;28;20067;-77
2022/12/19 02:48:00;;;;;;;111.45;36.38;;;1.20;99.90;;;;;;5095717;28;20064;-77
2022/12/19 02:50:26;;;;;;;119.82;38.17;;;;;;;;;;5085301;28;20484;-77
2022/12/19 02:52:52;;;;;;;100.72;37.10;;;;;;;;;;5099389;28;20045;-77
2022/12/19 02:55:23;;;;;;;121.63;37.17;;;1.50;99.90;;;;;;5104656;28;20185;-77
2022/12/19 02:58:11;;;;;;;108.55;36.15;;;;;;;;;;5092411;28;20151;-77
2022/12/19 03:00:43;;;;;;;107.50;35.80;;;;;;;;;;5100868;28;20040;-76
2022/12/19 03:03:34;;;;;;;106.15;35.90;;;1.30;99.90;;;;;;5095382;28;20046;-76
2022/12/19 03:06:03;;;;;;;106.65;35.50;;;;;;;;;;5076789;28;20047;-76
2022/12/19 03:08:35;;;;;;;106.53;36.75;;;;;;;;;;5112531;28;20079;-76
2022/12/19 03:11:14;;;;;;;113.00;36.78;;;;;;;;;;5102652;28;20097;-76
2022/12/19 03:13:45;;;;;;;116.93;37.17;;;1.50;99.90;;;;;;5105084;28;20038;-76
2022/12/19 03:16:11;;;;;;;101.45;37.00;;;;;;;;;;5102375;28;20123;-76
2022/12/19 03:18:38;;;;;;;116.25;37.03;;;1.60;99.90;;;;;;5092072;28;20127;-76
2022/12/19 03:21:04;;;;;;;107.40;35.28;;;;;;;;;;5083338;28;20104;-76
2022/12/19 03:23:31;;;;;;;116.40;37.72;;;;;;;;;;5093529;28;20092;-76
2022/12/19 03:26:05;;;;;;;112.68;38.55;;;1.70;99.90;;;;;;5114908;28;20043;-76
2022/12/19 03:28:44;;;;;;;107.60;36.30;;;1.50;99.90;;;;;;5076047;28;20044;-76
2022/12/19 03:31:12;;;;;;;106.82;37.50;;;;;;;;;;5104221;28;20107;-76
2022/12/19 03:33:39;;;;;;;110.18;38.65;;;;;;;;;;5116228;28;20076;-76
2022/12/19 03:36:09;;;;;;;110.32;37.72;;;1.60;99.90;;;;;;5111372;28;20040;-76
2022/12/19 03:38:37;;;;;;;107.03;35.90;;;1.70;99.90;;;;;;5096049;28;20048;-76
2022/12/19 03:41:06;;;;;;;105.53;36.40;;;1.70;99.90;;;;;;5098672;28;20043;-76
2022/12/19 03:43:33;;;;;;;105.32;36.20;;;1.50;99.90;;;;;;5115748;28;20051;-76
2022/12/19 03:45:59;;;;;;;99.70;37.40;;;;;;;;;;5098194;28;20047;-75
2022/12/19 03:48:44;;;;;;;111.13;37.22;;;;;;;;;;5095801;28;20483;-75
2022/12/19 03:51:42;;;;;;;94.35;35.28;;;1.80;99.90;;;;;;5097906;28;20125;-75
2022/12/19 03:54:23;;;;;;;93.43;34.45;;;;;;;;;;5092910;28;20121;-75
2022/12/19 03:56:52;;;;;;;104.53;35.05;;;;;;;;;;5083274;28;20048;-75
2022/12/19 03:59:18;;;;;;;115.75;38.40;;;;;;;;;;5112980;28;20506;-75
2022/12/19 04:01:44;;;;;;;110.45;37.42;;;1.60;99.90;;;;;;5098081;28;20028;-75
2022/12/19 04:04:11;;;;;;;112.85;38.58;;;;;;;;;;5115588;28;20054;-75
2022/12/19 04:06:38;;;;;;;115.13;38.05;;;;;;;;;;5115585;28;20036;-75
2022/12/19 04:09:05;;;;;;;113.05;38.00;;;1.70;99.90;;;;;;5095799;28;20101;-75
2022/12/19 04:11:35;;;;;;;106.90;36.47;;;;;;;;;;5078621;28;20119;-74
2022/12/19 04:14:03;;;;;;;121.75;37.80;;;;;;;;;;5112960;28;20053;-75
2022/12/19 04:16:49;;;;;;;120.45;37.55;;;1.80;99.90;;;;;;5115418;28;20547;-74
2022/12/19 04:19:29;;;;;;;122.72;37.63;;;;;;;;;;5078810;28;20101;-75
2022/12/19 04:22:06;;;;;;;104.05;37.60;;;1.90;99.90;;;;;;5110496;28;20487;-75
2022/12/19 04:24:37;;;;;;;111.88;37.35;;;;;;;;;;5075531;28;20036;-75
2022/12/19 04:27:06;;;;;;;108.82;36.67;;;1.80;99.90;;;;;;5058158;28;20037;-75
2022/12/19 04:29:34;;;;;;;110.13;36.97;;;1.70;99.90;;;;;;5098033;28;20116;-74
2022/12/19 04:32:01;;;;;;;115.35;36.40;;;;;;;;;;5115458;28;20035;-74
2022/12/19 04:34:27;;;;;;;106.38;37.20;;;;;;;;;;5112843;28;20100;-74
2022/12/19 04:36:53;;;;;;;104.50;35.65;;;;;;;;;;5115667;28;20059;-74
2022/12/19 04:39:19;;;;;;;99.93;35.35;;;;;;;;;;5099263;28;20070;-74
2022/12/19 04:41:45;;;;;;;105.60;38.38;;;;;;;;;;5094986;28;20040;-74
2022/12/19 04:44:11;;;;;;;120.05;36.50;;;;;;;;;;5107922;28;20040;-74
2022/12/19 04:46:37;;;;;;;105.78;36.40;;;;;;;;;;5114757;28;20433;-74
2022/12/19 04:49:03;;;;;;;106.63;37.10;;;;;;;;;;5104091;28;20051;-74
2022/12/19 04:51:29;;;;;;;111.20;37.63;;;;;;;;;;5094542;28;20055;-75
2022/12/19 04:53:56;;;;;;;100.13;36.65;;;;;;;;;;5085554;28;20043;-74
2022/12/19 04:56:22;;;;;;;94.15;36.30;;;;;;;;;;5077807;28;20652;-74
2022/12/19 04:58:48;;;;;;;104.82;36.15;;;;;;;;;;5101364;28;20118;-75
2022/12/19 05:01:14;;;;;;;102.22;36.20;;;;;;;;;;5098304;28;20043;-74
2022/12/19 05:03:40;;;;;;;97.93;36.00;;;;;;;;;;5109629;28;20036;-74
2022/12/19 05:06:07;;;;;;;111.60;37.70;;;;;;;;;;5077562;28;20040;-75
2022/12/19 05:08:33;;;;;;;101.80;36.13;;;;;;;;;;5108167;28;20079;-74
2022/12/19 05:11:00;;;;;;;93.38;34.95;;;;;;;;;;5094249;28;20036;-74
2022/12/19 05:13:26;;;;;;;111.43;34.88;;;;;;;;;;5106622;28;20051;-74
2022/12/19 05:16:01;;;;;;;98.43;36.10;;;2.20;99.90;;;;;;5094303;28;20039;-73
2022/12/19 05:18:27;;;;;;;105.85;35.45;;;;;;;;;;5077295;28;20452;-73
2022/12/19 05:20:53;;;;;;;101.10;35.92;;;;;;;;;;5096088;28;20040;-73
2022/12/19 05:23:20;;;;;;;94.03;35.22;;;;;;;;;;5102917;28;20051;-74
2022/12/19 05:25:46;;;;;;;95.05;33.53;;;;;;;;;;5110587;28;20043;-73
2022/12/19 05:28:12;;;;;;;96.82;33.97;;;;;;;;;;5107857;28;20475;-73
2022/12/19 05:30:38;;;;;;;96.13;33.08;;;;;;;;;;5091299;28;20047;-73
2022/12/19 05:33:04;;;;;;;94.07;35.17;;;;;;;;;;5113526;28;20091;-72
2022/12/19 05:35:30;;;;;;;86.10;32.88;;;;;;;;;;5110703;28;20039;-72
2022/12/19 05:37:56;;;;;;;94.63;33.88;;;;;;;;;;5113506;28;20043;-72
2022/12/19 05:40:22;;;;;;;88.80;32.83;;;;;;;;;;5103767;28;20071;-72
2022/12/19 05:42:49;;;;;;;88.38;32.58;;;;;;;;;;5093777;28;20044;-72
2022/12/19 05:45:15;;;;;;;87.28;32.13;;;;;;;;;;5093285;28;20063;-72
2022/12/19 05:47:42;;;;;;;82.38;31.85;;;;;;;;;;5066139;28;20388;-72
2022/12/19 05:50:09;;;;;;;85.07;31.65;;;;;;;;;;5113532;28;20043;-72
2022/12/19 05:52:38;;;;;;;83.25;31.63;;;2.50;99.90;;;;;;5109058;28;20115;-73
2022/12/19 05:55:05;;;;;;;82.18;32.03;;;2.40;99.90;;;;;;5093694;28;20040;-73
2022/12/19 05:57:31;;;;;;;73.22;31.45;;;;;;;;;;5094687;28;20099;-72
2022/12/19 05:59:57;;;;;;;87.38;31.45;;;;;;;;;;5093271;28;20079;-72
2022/12/19 06:02:24;;;;;;;80.95;30.17;;;;;;;;;;5093075;28;20036;-72
2022/12/19 06:04:50;;;;;;;77.28;29.92;;;;;;;;;;5108269;28;20058;-72
2022/12/19 06:07:16;;;;;;;86.88;31.05;;;;;;;;;;5098349;28;20475;-73
2022/12/19 06:09:42;;;;;;;75.70;29.40;;;;;;;;;;5095910;28;20044;-73
2022/12/19 06:12:08;;;;;;;73.28;29.77;;;;;;;;;;5092973;28;20094;-73
2022/12/19 06:14:34;;;;;;;73.80;28.30;;;;;;;;;;5090218;28;20051;-72
2022/12/19 06:17:00;;;;;;;70.93;28.55;;;;;;;;;;5096058;28;20047;-73
2022/12/19 06:19:26;;;;;;;70.63;27.08;;;;;;;;;;5100761;28;20040;-72
2022/12/19 06:21:52;;;;;;;71.57;26.80;;;;;;;;;;5092809;28;20044;-72
2022/12/19 06:24:18;;;;;;;69.50;26.50;;;;;;;;;;5085524;28;20040;-72
2022/12/19 06:26:44;;;;;;;60.50;25.58;;;;;;;;;;5093992;28;20043;-72
2022/12/19 06:29:10;;;;;;;66.15;25.83;;;;;;;;;;5083249;28;20039;-72
2022/12/19 06:31:36;;;;;;;56.00;25.20;;;;;;;;;;5113887;28;20165;-72
2022/12/19 06:34:03;;;;;;;63.30;24.85;;;;;;;;;;5090970;28;20028;-72
2022/12/19 06:36:29;;;;;;;59.40;24.60;;;2.70;99.90;;;;;;5076154;28;20043;-73
2022/12/19 06:38:56;;;;;;;62.63;23.45;;;;;;;;;;5078860;28;20400;-72
2022/12/19 06:44:09;;;;;;;52.28;22.30;;;2.70;99.90;;;;;;5109391;28;20032;-72
2022/12/19 06:46:36;;;;;;;52.88;21.23;;;;;;;;;;5092292;28;20048;-72
2022/12/19 06:49:02;;;;;;;54.28;22.30;;;;;;;;;;5092959;28;20071;-73
2022/12/19 06:51:28;;;;;;;51.33;22.05;;;;;;;;;;5110850;28;20036;-73
2022/12/19 06:53:54;;;;;;;47.92;21.13;;;;;;;;;;5112503;28;20032;-72
2022/12/19 06:56:20;;;;;;;55.03;21.08;;;;;;;;;;5093448;28;20118;-72
2022/12/19 06:58:46;;;;;;;45.83;19.98;;;;;;;;;;5091483;28;20505;-72
2022/12/19 07:01:29;;;;;;;44.20;19.90;;;3.10;99.90;;;;;;5095622;28;20484;-72
2022/12/19 07:03:55;;;;;;;;;;;3.00;99.90;;;;;;5087325;28;20047;-73
2022/12/19 07:06:22;;;;;;;39.22;18.98;;;;;;;;;;5095908;28;19928;-72
2022/12/19 07:08:48;;;;;;;50.83;21.00;;;;;;;;;;5092257;28;20039;-72
2022/12/19 07:11:14;;;;;;;40.42;17.55;;;;;;;;;;5089898;28;20387;-73
2022/12/19 07:13:40;;;;;;;45.70;18.40;;;;;;;;;;5112295;28;20028;-72
2022/12/19 07:16:07;;;;;;;40.92;18.10;;;;;;;;;;5100646;28;20396;-73
2022/12/19 07:18:36;;;;;;;43.80;18.08;;;3.30;99.90;;;;;;5075150;28;20127;-73
2022/12/19 07:21:03;;;;;;;38.85;18.73;;;3.40;99.90;;;;;;5089699;28;20126;-73
2022/12/19 07:23:29;;;;;;;40.97;17.90;;;;;;;;;;5076575;28;20032;-73
2022/12/19 07:25:56;;;;;;;33.38;16.88;;;;;;;;;;5099381;28;20047;-73
2022/12/19 07:28:22;;;;;;;39.42;17.27;;;;;;;;;;5112152;28;20136;-73
2022/12/19 07:30:48;;;;;;;39.05;17.83;;;;;;;;;;5106521;28;20182;-73
2022/12/19 07:33:14;;;;;;;35.67;17.40;;;;;;;;;;5101862;28;20035;-73
2022/12/19 07:35:40;;;;;;;38.63;16.98;;;;;;;;;;5094422;28;20130;-73
2022/12/19 07:38:07;;;;;;;37.10;17.48;;;;;;;;;;5096182;28;20040;-73
2022/12/19 07:40:34;;;;;;;37.83;17.05;;;;;;;;;;5092092;28;20046;-73
2022/12/19 07:43:00;;;;;;;40.25;16.77;;;;;;;;;;5112249;28;20325;-72
2022/12/19 07:45:27;;;;;;;36.20;17.15;;;;;;;;;;5106603;28;20051;-73
2022/12/19 07:47:53;;;;;;;37.28;16.90;;;;;;;;;;5092680;28;20114;-73
2022/12/19 07:50:19;;;;;;;35.15;15.88;;;;;;;;;;5073271;28;20032;-73
2022/12/19 07:52:46;;;;;;;35.88;16.95;;;;;;;;;;5104390;28;20055;-73
2022/12/19 07:55:12;;;;;;;37.15;16.27;;;;;;;;;;5108122;28;20124;-73
2022/12/19 07:57:38;;;;;;;36.45;16.60;;;;;;;;;;5092897;28;20052;-73
2022/12/19 08:00:05;;;;;;;40.45;16.60;;;;;;;;;;5076119;28;20040;-73
2022/12/19 08:02:31;;;;;;;31.15;15.57;;;;;;;;;;5093465;28;20048;-73
2022/12/19 08:04:58;;;;;;;34.17;16.42;;;;;;;;;;5092156;28;20040;-73
2022/12/19 08:07:24;;;;;;;35.83;16.08;;;;;;;;;;5094693;28;20031;-73
2022/12/19 08:09:50;;;;;;;36.70;16.70;;;;;;;;;;5105366;28;20138;-73
2022/12/19 08:12:16;;;;;;;35.53;17.17;;;;;;;;;;5099092;28;20031;-72
2022/12/19 08:14:42;;;;;;;35.80;16.73;;;;;;;;;;5073629;28;20048;-73
2022/12/19 08:17:08;;;;;;;37.53;16.38;;;;;;;;;;5084449;28;20132;-71
2022/12/19 08:19:34;;;;;;;35.65;17.48;;;;;;;;;;5114538;28;20050;-72
2022/12/19 08:22:00;;;;;;;35.30;16.85;;;;;;;;;;5100531;28;20040;-72
2022/12/19 08:24:26;;;;;;;33.35;16.85;;;;;;;;;;5076898;28;20050;-72
2022/12/19 08:26:52;;;;;;;38.63;17.30;;;;;;;;;;5084856;28;20040;-71
2022/12/19 08:29:19;;;;;;;33.85;16.67;;;;;;;;;;5107251;28;20101;-71
2022/12/19 08:31:45;;;;;;;32.70;16.58;;;;;;;;;;5099207;28;20040;-72
2022/12/19 08:34:11;;;;;;;37.83;17.23;;;;;;;;;;5106120;28;20105;-72
2022/12/19 08:36:38;;;;;;;36.60;17.08;;;;;;;;;;5078086;28;20081;-71
2022/12/19 08:39:04;;;;;;;31.80;16.75;;;;;;;;;;5096206;28;20098;-72
2022/12/19 08:41:30;;;;;;;36.08;16.90;;;;;;;;;;5079378;28;20032;-72
2022/12/19 08:43:56;;;;;;;35.13;16.95;;;;;;;;;;5113466;28;20513;-72
2022/12/19 08:46:23;;;;;;;38.80;16.95;;;;;;;;;;5113905;28;20487;-72
2022/12/19 08:48:49;;;;;;;36.45;16.92;;;;;;;;;;5104934;28;20051;-72
2022/12/19 08:51:16;;;;;;;41.35;18.60;;;;;;;;;;5094828;28;20452;-72
2022/12/19 08:53:43;;;;;;;39.45;17.15;;;4.80;99.90;;;;;;5094502;28;20507;-72
2022/12/19 08:56:09;;;;;;;36.63;18.60;;;;;;;;;;5094707;28;20101;-72
2022/12/19 08:58:35;;;;;;;39.28;18.58;;;;;;;;;;5094318;28;20503;-72
2022/12/19 09:01:03;;;;;;;39.80;18.80;;;4.70;99.90;;;;;;5094417;28;20040;-72
2022/12/19 09:03:30;;;;;;;40.90;19.10;;;4.90;99.90;;;;;;5094224;28;20051;-72
2022/12/19 09:05:57;;;;;;;44.30;19.27;;;;;;;;;;5086920;28;20039;-73
2022/12/19 09:08:24;;;;;;;43.20;20.45;;;;;;;;;;5092816;28;20450;-72
2022/12/19 09:10:50;;;;;;;51.88;21.23;;;;;;;;;;5094285;28;20090;-73
2022/12/19 09:13:16;;;;;;;48.25;21.42;;;;;;;;;;5094145;28;20119;-72
2022/12/19 09:15:42;;;;;;;46.13;20.88;;;;;;;;;;5077409;28;20039;-73
2022/12/19 09:18:08;;;;;;;53.65;22.45;;;;;;;;;;5077357;28;20048;-73
2022/12/19 09:20:34;;;;;;;51.28;22.45;;;;;;;;;;5093970;28;20535;-73
2022/12/19 09:23:00;;;;;;;51.28;23.05;;;;;;;;;;5076209;28;20035;-73
2022/12/19 09:25:27;;;;;;;50.70;22.80;;;;;;;;;;5094010;28;20044;-73
2022/12/19 09:27:53;;;;;;;54.60;23.67;;;;;;;;;;5094310;28;20028;-72
2022/12/19 09:30:19;;;;;;;48.85;23.02;;;;;;;;;;5094211;28;20059;-72
2022/12/19 09:32:46;;;;;;;48.38;22.73;;;;;;;;;;5093975;28;20067;-72
2022/12/19 09:35:12;;;;;;;49.58;23.25;;;;;;;;;;5093922;28;20055;-72
2022/12/19 09:37:38;;;;;;;52.95;23.05;;;;;;;;;;5093734;28;20123;-73
2022/12/19 09:40:04;;;;;;;61.55;24.45;;;;;;;;;;5093724;28;20040;-72
2022/12/19 09:43:18;;;;;;;57.05;24.90;;;5.70;99.90;;;;;;5093666;28;20036;-73
2022/12/19 09:45:52;;;;;;;48.97;24.33;;;;;;;;;;5070009;28;20527;-72
2022/12/19 09:48:19;;;;;;;57.28;23.77;;;;;;;;;;5093061;28;20522;-73
2022/12/19 09:50:51;;;;;;;56.17;25.02;;;;;;;;;;5093341;28;20071;-73
2022/12/19 09:53:27;;;;;;;53.85;24.38;;;;;;;;;;5090778;28;20036;-73
2022/12/19 09:55:53;;;;;;;56.45;25.67;;;;;;;;;;5090286;28;20028;-73
2022/12/19 09:58:28;;;;;;;50.33;24.25;;;5.90;99.90;;;;;;5092940;28;20412;-73
2022/12/19 10:01:00;;;;;;;49.65;22.85;;;6.00;99.90;;;;;;5090311;28;20028;-73
2022/12/19 10:03:29;;;;;;;;;;;5.80;99.90;;;;;;5093436;28;20043;-73
2022/12/19 10:05:56;;;;;;;55.63;24.48;;;6.00;99.90;;;;;;5090277;28;20010;-73
2022/12/19 10:08:38;;;;;;;52.33;22.77;;;6.10;99.90;;;;;;5093015;28;20036;-73
2022/12/19 10:11:16;;;;;;;51.55;21.25;;;;;;;;;;5091586;28;20495;-73
2022/12/19 10:14:01;;;;;;;54.20;23.02;;;6.30;99.90;;;;;;5091165;28;20127;-73
2022/12/19 10:16:34;;;;;;;49.92;22.23;;;;;;;;;;5092119;28;20043;-73
2022/12/19 10:19:04;;;;;;;51.42;21.92;;;6.20;99.90;;;;;;5073962;28;20043;-73
2022/12/19 10:22:07;;;;;;;48.22;22.70;;;6.30;99.90;;;;;;5092358;28;20040;-73
2022/12/19 10:24:48;;;;;;;;;;;6.30;99.90;;;;;;5090115;28;20040;-73
2022/12/19 10:27:17;;;;;;;51.72;22.55;;;;;;;;;;5089947;28;20014;-73
2022/12/19 10:29:46;;;;;;;48.92;22.15;;;;;;;;;;5092345;28;20079;-73
2022/12/19 10:32:15;;;;;;;47.13;21.88;;;;;;;;;;5092034;28;20570;-73
2022/12/19 10:34:43;;;;;;;47.00;21.27;;;6.10;99.90;;;;;;5094441;28;20097;-76
2022/12/19 10:37:27;;;;;;;44.60;21.58;;;;;;;;;;5079675;28;20036;-72
2022/12/19 10:39:59;;;;;;;51.20;22.88;;;;;;;;;;5075586;28;20505;-72
2022/12/19 10:42:43;;;;;;;47.60;21.95;;;;;;;;;;5092411;28;20047;-72
2022/12/19 10:45:18;;;;;;;41.22;18.92;;;6.20;99.90;;;;;;5090536;28;20138;-72
2022/12/19 10:47:49;;;;;;;48.70;20.27;;;6.50;99.90;;;;;;5092508;28;20044;-72
2022/12/19 10:50:20;;;;;;;43.20;20.98;;;;;;;;;;5052080;28;20028;-72
2022/12/19 10:52:50;;;;;;;40.13;19.10;;;;;;;;;;5092093;28;20036;-72
2022/12/19 10:55:22;;;;;;;42.08;19.13;;;;;;;;;;5074148;28;20121;-73
2022/12/19 10:57:48;;;;;;;45.63;19.63;;;;;;;;;;5075206;28;20185;-73
2022/12/19 11:00:18;;;;;;;40.50;19.05;;;;;;;;;;5073611;28;20564;-73
2022/12/19 11:02:53;;;;;;;39.45;19.02;;;6.50;99.90;;;;;;5075674;28;20036;-73
2022/12/19 11:05:26;;;;;;;41.35;19.20;;;;;;;;;;5073311;28;20090;-73
2022/12/19 11:08:08;;;;;;;38.75;18.70;;;;;;;;;;5077019;28;20069;-73
2022/12/19 11:10:44;;;;;;;32.83;17.23;;;6.50;99.90;;;;;;5075034;28;20047;-72
2022/12/19 11:13:15;;;;;;;41.88;18.80;;;;;;;;;;5091343;28;20096;-72
2022/12/19 11:15:46;;;;;;;38.83;17.77;;;;;;;;;;5090915;28;20126;-73
2022/12/19 11:18:13;;;;;;;35.17;17.27;;;;;;;;;;5077221;28;20040;-73
2022/12/19 11:20:39;;;;;;;34.67;17.52;;;;;;;;;;5093441;28;20044;-73
2022/12/19 11:23:12;;;;;;;38.63;18.02;;;;;;;;;;5092195;28;20048;-72
2022/12/19 11:25:42;;;;;;;32.75;17.08;;;;;;;;;;5096471;28;20039;-72
2022/12/19 11:28:20;;;;;;;38.67;18.05;;;;;;;;;;5099329;28;20076;-72
2022/12/19 11:31:00;;;;;;;40.83;18.38;;;6.70;99.90;;;;;;5109029;28;20027;-73
2022/12/19 11:33:27;;;;;;;36.33;17.67;;;;;;;;;;5098575;28;20047;-72
2022/12/19 11:35:57;;;;;;;37.40;18.67;;;6.90;99.90;;;;;;5082069;28;20031;-73
2022/12/19 11:38:47;;;;;;;41.35;20.13;;;6.70;99.90;;;;;;5096082;28;20035;-73
2022/12/19 11:41:13;;;;;;;33.03;18.27;;;;;;;;;;5079129;28;20422;-73
2022/12/19 11:44:25;;;;;;;40.78;19.27;;;6.90;99.90;;;;;;5094336;28;20407;-73
2022/12/19 11:47:09;;;;;;;38.10;18.92;;;;;;;;;;5065895;28;20113;-73
2022/12/19 11:49:41;;;;;;;40.15;18.65;;;6.80;99.90;;;;;;5093755;28;20499;-73
2022/12/19 11:52:25;;;;;;;35.47;18.27;;;;;;;;;;5099080;28;20054;-73
2022/12/19 11:55:02;;;;;;;38.38;18.17;;;6.90;99.90;;;;;;5094852;28;20388;-73
2022/12/19 11:57:28;;;;;;;35.60;17.38;;;;;;;;;;5098009;28;20036;-73
2022/12/19 11:59:54;;;;;;;36.90;18.25;;;;;;;;;;5096571;28;20097;-72
2022/12/19 12:02:26;;;;;;;35.30;17.63;;;;;;;;;;5098275;28;20479;-73
2022/12/19 12:04:55;;;;;;;41.25;18.42;;;;;;;;;;5108322;28;20044;-73
2022/12/19 12:07:21;;;;;;;33.83;16.52;;;;;;;;;;5098096;28;20047;-73
2022/12/19 12:10:16;;;;;;;30.88;16.65;;;;;;;;;;5095017;28;20095;-73
2022/12/19 12:13:20;;;;;;;32.05;16.08;;;7.20;99.90;;;;;;5097363;28;20052;-73
2022/12/19 12:15:53;;;;;;;31.98;15.88;;;;;;;;;;5100900;28;20055;-72
2022/12/19 12:18:29;;;;;;;27.70;15.80;;;;;;;;;;5102391;28;20048;-72
2022/12/19 12:20:58;;;;;;;28.15;15.75;;;;;;;;;;5096252;28;20086;-74
2022/12/19 12:23:24;;;;;;;35.10;15.30;;;;;;;;;;5104523;28;20035;-71
2022/12/19 12:25:59;;;;;;;33.05;17.35;;;;;;;;;;5094288;28;20036;-71
2022/12/19 12:29:02;;;;;;;30.30;15.70;;;7.20;99.90;;;;;;5090457;28;20086;-71
2022/12/19 12:31:34;;;;;;;31.08;15.70;;;;;;;;;;5110198;28;20127;-71
2022/12/19 12:34:00;;;;;;;28.83;15.13;;;;;;;;;;5100537;28;20179;-71
2022/12/19 12:36:47;;;;;;;26.50;13.90;;;7.20;99.90;;;;;;5093493;28;20460;-71
2022/12/19 12:39:24;;;;;;;28.25;14.13;;;7.20;99.90;;;;;;5104655;28;20042;-71
2022/12/19 12:42:02;;;;;;;29.50;14.68;;;;;;;;;;5091188;28;20119;-71
2022/12/19 12:44:35;;;;;;;29.20;15.23;;;7.30;99.90;;;;;;5100674;28;20044;-71
2022/12/19 12:47:17;;;;;;;24.35;14.20;;;;;;;;;;5095683;28;20044;-71
2022/12/19 12:49:49;;;;;;;28.15;15.07;;;6.90;99.90;;;;;;5100484;28;20043;-71
2022/12/19 12:52:29;;;;;;;28.52;14.15;;;;;;;;;;5097170;28;20039;-71
2022/12/19 12:54:56;;;;;;;25.77;15.10;;;;;;;;;;5095815;28;20058;-71
2022/12/19 12:57:25;;;;;;;31.85;14.90;;;7.20;99.90;;;;;;5111041;28;20364;-71
2022/12/19 13:00:14;;;;;;;25.30;13.98;;;7.30;99.90;;;;;;5106658;28;20036;-72
2022/12/19 13:02:41;;;;;;;22.02;13.65;;;7.00;99.90;;;;;;5103023;28;20122;-71
2022/12/19 13:05:24;;;;;;;35.00;14.25;;;;;;;;;;5104203;28;20039;-72
2022/12/19 13:07:52;;;;;;;29.67;14.60;;;;;;;;;;5112755;28;20070;-72
2022/12/19 13:10:31;;;;;;;26.15;14.80;;;7.20;99.90;;;;;;5107750;28;20063;-72
2022/12/19 13:13:12;;;;;;;32.40;15.05;;;7.10;99.90;;;;;;5068016;28;20091;-72
2022/12/19 13:15:43;;;;;;;27.17;13.85;;;;;;;;;;5107033;28;20040;-72
2022/12/19 13:18:27;;;;;;;27.52;14.68;;;7.10;99.90;;;;;;5089471;28;20050;-72
2022/12/19 13:20:53;;;;;;;25.17;14.10;;;;;;;;;;5100862;28;20072;-72
2022/12/19 13:23:21;;;;;;;27.10;14.82;;;;;;;;;;5096191;28;20035;-72
2022/12/19 13:25:50;;;;;;;28.40;15.63;;;7.20;99.90;;;;;;5099046;28;20035;-72
2022/12/19 13:28:19;;;;;;;29.98;15.10;;;;;;;;;;5112592;28;20039;-72
2022/12/19 13:31:01;;;;;;;31.70;15.82;;;;;;;;;;5095620;28;20115;-72
2022/12/19 13:33:46;;;;;;;30.43;14.87;;;;;;;;;;5093908;28;20036;-72
2022/12/19 13:36:45;;;;;;;29.48;15.02;;;7.40;99.90;;;;;;5103735;28;20047;-72
2022/12/19 13:39:23;;;;;;;27.08;14.35;;;;;;;;;;5111945;28;20043;-72
2022/12/19 13:44:39;;;;;;;28.08;14.93;;;7.20;99.90;;;;;;5094680;28;20185;-72
2022/12/19 13:47:06;;;;;;;23.42;14.15;;;;;;;;;;5110552;28;20048;-72
2022/12/19 13:49:32;;;;;;;21.73;13.63;;;7.20;99.90;;;;;;5111996;28;20479;-72
2022/12/19 13:51:59;;;;;;;24.55;14.18;;;;;;;;;;5099802;28;20040;-72
2022/12/19 13:54:33;;;;;;;27.10;14.40;;;7.30;99.90;;;;;;5078106;28;20032;-72
2022/12/19 13:56:59;;;;;;;23.85;14.73;;;;;;;;;;5101206;28;20043;-72
2022/12/19 13:59:27;;;;;;;26.25;15.57;;;;;;;;;;5100750;28;20402;-71
2022/12/19 14:01:53;;;;;;;32.83;18.08;;;7.10;99.90;;;;;;5105109;28;20035;-72
2022/12/19 14:04:29;;;;;;;30.45;16.70;;;7.40;99.90;;;;;;5111303;28;20031;-72
2022/12/19 14:07:00;;;;;;;27.63;17.83;;;;;;;;;;5096485;28;20484;-72
2022/12/19 14:09:35;;;;;;;31.95;17.15;;;;;;;;;;5092786;28;20032;-72